Time;durP1;ratioP1;P1;durP2;ratioP2;P2;SDS_P1;SDS_P2;PMS_P1;PMS_P2;Temp;Humidity;BMP_temperature;BMP_pressure;BME280_temperature;BME280_humidity;BME280_pressure;Samples;Min_cycle;Max_cycle;Signal;HPM_P1;HPM_P2
2023/05/21 00:01:47;;;;;;;10.40;7.75;;;16.90;1.00;;;;;;5049063;28;20060;-67
2023/05/21 00:04:14;;;;;;;9.20;7.25;;;16.90;1.00;;;;;;5052495;28;20065;-67
2023/05/21 00:06:40;;;;;;;9.57;7.20;;;16.90;1.00;;;;;;5052805;28;20435;-66
2023/05/21 00:09:06;;;;;;;9.00;7.40;;;16.90;1.00;;;;;;5052422;28;20117;-68
2023/05/21 00:11:32;;;;;;;8.23;7.35;;;16.90;1.00;;;;;;5052493;28;20044;-68
2023/05/21 00:13:58;;;;;;;8.15;7.32;;;16.90;1.00;;;;;;5053776;28;20025;-66
2023/05/21 00:16:24;;;;;;;10.32;8.18;;;16.90;1.00;;;;;;5051205;28;20025;-66
2023/05/21 00:18:50;;;;;;;8.02;7.22;;;16.90;1.00;;;;;;5053616;28;20029;-67
2023/05/21 00:21:16;;;;;;;7.88;7.07;;;16.90;1.00;;;;;;5052816;28;20098;-67
2023/05/21 00:23:44;;;;;;;9.65;7.93;;;16.90;1.00;;;;;;5051132;28;20052;-67
2023/05/21 00:26:09;;;;;;;7.97;6.80;;;16.80;1.00;;;;;;5051595;28;20021;-66
2023/05/21 00:28:35;;;;;;;8.80;7.43;;;16.80;1.00;;;;;;5051458;28;20368;-68
2023/05/21 00:31:01;;;;;;;10.02;7.20;;;16.80;1.00;;;;;;5053343;28;20429;-68
2023/05/21 00:33:27;;;;;;;6.70;6.10;;;16.80;1.00;;;;;;5053923;28;20074;-67
2023/05/21 00:35:54;;;;;;;7.22;6.53;;;16.80;1.00;;;;;;5053213;28;20104;-68
2023/05/21 00:38:20;;;;;;;7.40;6.40;;;16.80;1.00;;;;;;5050867;28;20056;-67
2023/05/21 00:40:46;;;;;;;7.07;6.22;;;16.80;1.00;;;;;;5052121;28;20094;-67
2023/05/21 00:43:13;;;;;;;10.05;6.70;;;16.80;1.00;;;;;;5052186;28;20036;-67
2023/05/21 00:45:43;;;;;;;7.40;6.18;;;16.80;1.00;;;;;;5053157;28;20570;-68
2023/05/21 00:48:09;;;;;;;7.03;6.30;;;16.80;1.00;;;;;;5051000;28;20102;-68
2023/05/21 00:50:38;;;;;;;7.40;6.70;;;16.80;1.00;;;;;;5051003;28;20036;-68
2023/05/21 00:53:08;;;;;;;8.43;6.22;;;16.80;1.00;;;;;;5053117;28;20037;-68
2023/05/21 00:55:35;;;;;;;7.43;6.10;;;16.80;1.00;;;;;;5053331;28;20021;-68
2023/05/21 00:58:03;;;;;;;7.30;6.10;;;16.80;1.00;;;;;;5051654;28;20043;-66
2023/05/21 01:00:33;;;;;;;7.50;6.45;;;16.80;1.00;;;;;;5051552;28;20458;-67
2023/05/21 01:03:03;;;;;;;6.93;6.20;;;16.80;1.00;;;;;;5055385;28;20032;-69
2023/05/21 01:05:29;;;;;;;7.00;5.72;;;16.80;1.00;;;;;;5052639;28;20395;-67
2023/05/21 01:07:56;;;;;;;7.43;5.90;;;16.80;1.00;;;;;;5039393;28;20053;-68
2023/05/21 01:10:23;;;;;;;7.63;6.05;;;16.80;1.00;;;;;;5051601;28;20023;-67
2023/05/21 01:12:50;;;;;;;6.75;6.07;;;16.80;1.00;;;;;;5053076;28;20364;-67
2023/05/21 01:15:16;;;;;;;5.93;5.35;;;16.80;1.00;;;;;;5050352;28;20045;-67
2023/05/21 01:17:44;;;;;;;9.00;5.10;;;16.80;1.00;;;;;;5051828;28;20403;-67
2023/05/21 01:20:10;;;;;;;6.85;6.15;;;16.80;1.00;;;;;;5048360;28;20487;-67
2023/05/21 01:22:42;;;;;;;6.07;5.57;;;16.80;1.00;;;;;;5049920;28;20025;-67
2023/05/21 01:25:09;;;;;;;6.20;5.60;;;16.80;1.00;;;;;;5050115;28;20025;-67
2023/05/21 01:27:35;;;;;;;7.07;5.43;;;16.80;1.00;;;;;;5051528;28;20019;-67
2023/05/21 01:30:01;;;;;;;6.68;5.95;;;16.80;1.00;;;;;;5051196;28;20467;-66
2023/05/21 01:33:03;;;;;;;6.60;5.90;;;16.70;1.00;;;;;;5047088;28;20028;-67
2023/05/21 01:35:36;;;;;;;6.50;5.28;;;16.70;1.00;;;;;;5009330;28;20040;-67
2023/05/21 01:38:11;;;;;;;6.55;4.93;;;16.70;1.00;;;;;;5038146;28;20229;-69
2023/05/21 01:40:57;;;;;;;7.18;5.15;;;16.70;1.00;;;;;;5049573;28;20049;-68
2023/05/21 01:43:26;;;;;;;5.68;4.82;;;16.70;1.00;;;;;;5042129;28;20025;-66
2023/05/21 01:45:55;;;;;;;7.22;5.22;;;16.80;1.00;;;;;;5054037;28;20036;-66
2023/05/21 01:48:26;;;;;;;7.43;4.95;;;16.80;1.00;;;;;;5046985;28;20482;-66
2023/05/21 01:50:54;;;;;;;4.32;3.92;;;16.70;1.00;;;;;;5049765;28;20040;-66
2023/05/21 01:53:21;;;;;;;5.55;5.05;;;16.60;1.00;;;;;;5047989;28;20083;-66
2023/05/21 01:55:47;;;;;;;5.10;3.95;;;16.70;1.00;;;;;;5050840;28;20025;-67
2023/05/21 01:58:14;;;;;;;4.90;3.80;;;16.70;1.00;;;;;;5050981;28;20052;-66
2023/05/21 02:00:40;;;;;;;5.13;4.00;;;16.70;1.00;;;;;;5051488;28;20052;-67
2023/05/21 02:03:07;;;;;;;4.60;3.85;;;16.70;1.00;;;;;;5046821;28;20521;-67
2023/05/21 02:05:33;;;;;;;3.72;3.30;;;16.70;1.00;;;;;;5051869;28;20024;-67
2023/05/21 02:07:59;;;;;;;3.78;3.47;;;16.70;1.00;;;;;;5050938;28;20479;-66
2023/05/21 02:10:25;;;;;;;3.97;3.60;;;16.70;1.00;;;;;;5037398;28;20478;-66
2023/05/21 02:12:50;;;;;;;4.85;3.45;;;16.70;1.00;;;;;;5046691;28;20088;-66
2023/05/21 02:15:19;;;;;;;4.88;3.97;;;16.70;1.00;;;;;;5050615;28;20036;-66
2023/05/21 02:17:45;;;;;;;3.92;3.20;;;16.70;1.00;;;;;;5051766;28;20425;-66
2023/05/21 02:20:12;;;;;;;5.10;4.13;;;16.70;1.00;;;;;;5051870;28;20398;-66
2023/05/21 02:22:38;;;;;;;4.28;3.88;;;16.70;1.00;;;;;;5049053;28;20026;-66
2023/05/21 02:25:06;;;;;;;5.70;3.97;;;16.70;1.00;;;;;;5051198;28;20049;-66
2023/05/21 02:27:33;;;;;;;4.75;3.45;;;16.70;1.00;;;;;;5049333;28;20100;-66
2023/05/21 02:29:59;;;;;;;4.68;3.83;;;16.60;1.00;;;;;;5051078;28;20041;-66
2023/05/21 02:32:25;;;;;;;3.30;3.00;;;16.70;1.00;;;;;;5051570;28;20025;-66
2023/05/21 02:34:51;;;;;;;4.18;3.72;;;16.70;1.00;;;;;;5041171;28;20104;-66
2023/05/21 02:37:18;;;;;;;4.32;3.22;;;16.70;1.00;;;;;;5051428;28;20049;-66
2023/05/21 02:39:44;;;;;;;7.70;4.00;;;16.70;1.00;;;;;;5048238;28;20041;-66
2023/05/21 02:42:09;;;;;;;3.65;3.13;;;16.70;1.00;;;;;;5046162;28;20383;-66
2023/05/21 02:44:35;;;;;;;3.75;3.40;;;16.70;1.00;;;;;;5037855;28;20029;-66
2023/05/21 02:47:01;;;;;;;4.07;2.90;;;16.70;1.00;;;;;;5051760;28;20123;-67
2023/05/21 02:49:26;;;;;;;3.60;2.97;;;16.70;1.00;;;;;;5051320;28;20055;-66
2023/05/21 02:51:52;;;;;;;3.10;2.65;;;16.70;1.00;;;;;;5050771;28;20028;-66
2023/05/21 02:54:17;;;;;;;5.95;3.20;;;16.70;1.00;;;;;;5051261;28;20029;-65
2023/05/21 02:56:43;;;;;;;4.93;3.00;;;16.70;1.00;;;;;;5048890;28;20052;-66
2023/05/21 02:59:09;;;;;;;4.72;2.72;;;16.70;1.00;;;;;;5051812;28;20053;-67
2023/05/21 03:01:35;;;;;;;3.88;3.05;;;16.70;1.00;;;;;;5048853;28;20036;-66
2023/05/21 03:04:00;;;;;;;7.13;3.05;;;16.70;1.00;;;;;;5051493;28;20035;-66
2023/05/21 03:06:26;;;;;;;2.97;2.70;;;16.70;1.00;;;;;;5054039;28;20104;-66
2023/05/21 03:08:51;;;;;;;4.03;2.65;;;16.70;1.00;;;;;;5053031;28;20075;-67
2023/05/21 03:11:18;;;;;;;4.20;3.05;;;16.70;1.00;;;;;;5052026;28;20379;-66
2023/05/21 03:13:44;;;;;;;4.40;3.47;;;16.70;1.00;;;;;;5055074;28;20582;-66
2023/05/21 03:16:11;;;;;;;3.30;3.00;;;16.70;1.00;;;;;;5053550;28;20060;-66
2023/05/21 03:18:36;;;;;;;2.95;2.63;;;16.70;1.00;;;;;;5054216;28;20056;-65
2023/05/21 03:21:03;;;;;;;4.28;3.83;;;16.70;1.00;;;;;;5054926;28;20067;-66
2023/05/21 03:23:28;;;;;;;4.75;3.67;;;16.70;1.00;;;;;;5054626;28;20021;-66
2023/05/21 03:25:54;;;;;;;4.20;3.78;;;16.70;1.00;;;;;;5053049;28;20100;-66
2023/05/21 03:28:20;;;;;;;5.70;3.85;;;16.70;1.00;;;;;;5054079;28;20028;-66
2023/05/21 03:30:48;;;;;;;5.57;3.83;;;16.70;1.00;;;;;;5052866;28;20032;-66
2023/05/21 03:33:14;;;;;;;4.85;4.45;;;16.70;1.00;;;;;;5053391;28;20116;-66
2023/05/21 03:35:40;;;;;;;4.45;4.05;;;16.70;1.00;;;;;;5053803;28;20107;-66
2023/05/21 03:38:05;;;;;;;4.65;4.00;;;16.70;1.00;;;;;;5054465;28;20124;-66
2023/05/21 03:40:31;;;;;;;7.60;4.68;;;16.70;1.00;;;;;;5050163;28;20406;-67
2023/05/21 03:42:56;;;;;;;5.13;4.68;;;16.70;1.00;;;;;;5052140;28;20040;-66
2023/05/21 03:45:22;;;;;;;7.32;5.63;;;16.70;1.00;;;;;;5054853;28;20382;-66
2023/05/21 03:47:48;;;;;;;5.55;5.05;;;16.70;1.00;;;;;;5054107;28;20021;-66
2023/05/21 03:50:14;;;;;;;5.97;4.57;;;16.70;1.00;;;;;;5054170;28;20036;-67
2023/05/21 03:52:40;;;;;;;7.00;4.95;;;16.70;1.00;;;;;;5052622;28;20031;-66
2023/05/21 03:55:06;;;;;;;6.75;5.50;;;16.70;1.00;;;;;;5053585;28;20113;-66
2023/05/21 03:57:31;;;;;;;6.72;6.05;;;16.70;1.00;;;;;;5052031;28;20083;-67
2023/05/21 03:59:57;;;;;;;7.10;6.40;;;16.70;1.00;;;;;;5053974;28;20033;-67
2023/05/21 04:02:26;;;;;;;7.55;6.85;;;16.70;1.00;;;;;;5051914;28;20036;-67
2023/05/21 04:04:52;;;;;;;8.90;8.00;;;16.80;1.00;;;;;;5052728;28;20487;-67
2023/05/21 04:07:18;;;;;;;9.52;7.22;;;16.80;1.00;;;;;;5050566;28;20057;-67
2023/05/21 04:09:45;;;;;;;8.43;7.63;;;16.80;1.00;;;;;;5051964;28;20029;-66
2023/05/21 04:12:10;;;;;;;8.90;8.00;;;16.80;1.00;;;;;;5048077;28;20025;-66
2023/05/21 04:14:36;;;;;;;9.57;7.97;;;16.80;1.00;;;;;;5053609;28;20106;-66
2023/05/21 04:17:06;;;;;;;9.10;8.18;;;16.80;1.00;;;;;;5052196;28;20571;-67
2023/05/21 04:19:31;;;;;;;8.48;7.68;;;16.80;1.00;;;;;;5053917;28;20025;-67
2023/05/21 04:21:57;;;;;;;8.82;7.55;;;16.80;1.00;;;;;;5051684;28;20032;-67
2023/05/21 04:24:23;;;;;;;8.20;7.38;;;16.80;1.00;;;;;;5053598;28;20064;-66
2023/05/21 04:26:49;;;;;;;8.00;6.47;;;16.80;1.00;;;;;;5050058;28;20029;-66
2023/05/21 04:29:20;;;;;;;8.07;7.10;;;16.80;1.00;;;;;;5053481;28;20025;-67
2023/05/21 04:31:46;;;;;;;7.45;6.50;;;16.80;1.00;;;;;;5051327;28;20032;-67
2023/05/21 04:34:12;;;;;;;7.00;6.40;;;16.70;1.00;;;;;;5053419;28;20110;-67
2023/05/21 04:36:38;;;;;;;7.72;6.90;;;16.80;1.00;;;;;;5052187;28;20148;-65
2023/05/21 04:39:05;;;;;;;7.30;6.60;;;16.80;1.00;;;;;;5051656;28;20029;-67
2023/05/21 04:41:30;;;;;;;6.65;6.00;;;16.80;1.00;;;;;;5051902;28;20035;-68
2023/05/21 04:43:57;;;;;;;7.57;6.85;;;16.80;1.00;;;;;;5053521;28;20029;-68
2023/05/21 04:46:26;;;;;;;8.07;7.05;;;16.80;1.00;;;;;;5053194;28;20029;-68
2023/05/21 04:48:54;;;;;;;7.07;6.38;;;16.80;1.00;;;;;;5053419;28;20021;-68
2023/05/21 04:51:21;;;;;;;7.82;6.60;;;16.80;1.00;;;;;;5052475;28;20075;-67
2023/05/21 04:53:48;;;;;;;7.45;6.75;;;16.80;1.00;;;;;;5053130;28;20021;-68
2023/05/21 04:56:16;;;;;;;7.45;6.75;;;16.80;1.00;;;;;;5051328;28;20376;-67
2023/05/21 04:58:41;;;;;;;7.53;6.78;;;16.80;1.00;;;;;;5048563;28;20028;-67
2023/05/21 05:01:07;;;;;;;7.22;6.47;;;16.90;1.00;;;;;;5048951;28;20435;-67
2023/05/21 05:03:33;;;;;;;8.32;7.57;;;16.90;1.00;;;;;;5052650;28;20021;-66
2023/05/21 05:06:03;;;;;;;7.20;6.47;;;16.90;1.00;;;;;;5052468;28;20035;-67
2023/05/21 05:08:28;;;;;;;9.07;7.25;;;17.00;1.00;;;;;;5050320;28;20029;-67
2023/05/21 05:10:54;;;;;;;8.40;7.50;;;17.00;1.00;;;;;;5049957;28;20490;-67
2023/05/21 05:13:20;;;;;;;7.88;7.07;;;17.00;1.00;;;;;;5051765;28;20033;-67
2023/05/21 05:15:46;;;;;;;7.88;7.18;;;17.00;1.00;;;;;;5053009;28;20071;-67
2023/05/21 05:18:12;;;;;;;8.20;7.40;;;17.00;1.00;;;;;;5052358;28;20039;-67
2023/05/21 05:20:37;;;;;;;7.90;7.10;;;17.00;1.00;;;;;;5051890;28;20041;-67
2023/05/21 05:23:03;;;;;;;6.82;6.22;;;17.00;1.00;;;;;;5049111;28;20036;-67
2023/05/21 05:25:29;;;;;;;6.68;5.97;;;17.00;1.00;;;;;;5049286;28;20367;-67
2023/05/21 05:27:54;;;;;;;7.40;6.70;;;17.00;1.00;;;;;;5046662;28;20079;-67
2023/05/21 05:30:20;;;;;;;6.75;5.97;;;17.10;1.00;;;;;;5052296;28;20481;-67
2023/05/21 05:32:46;;;;;;;8.65;5.53;;;17.00;1.00;;;;;;5050137;28;20092;-67
2023/05/21 05:35:12;;;;;;;6.35;5.50;;;17.10;1.00;;;;;;5052439;28;20102;-67
2023/05/21 05:37:38;;;;;;;6.82;5.45;;;17.10;1.00;;;;;;5050285;28;20490;-67
2023/05/21 05:40:04;;;;;;;6.00;5.40;;;17.10;1.00;;;;;;5052136;28;20037;-67
2023/05/21 05:42:30;;;;;;;5.78;4.95;;;17.10;1.00;;;;;;5050720;28;20075;-67
2023/05/21 05:44:56;;;;;;;6.00;5.45;;;17.20;1.00;;;;;;5051235;28;20025;-67
2023/05/21 05:47:21;;;;;;;5.25;4.75;;;17.20;1.00;;;;;;5051108;28;20025;-67
2023/05/21 05:49:47;;;;;;;4.97;4.15;;;17.20;1.00;;;;;;5052287;28;20033;-67
2023/05/21 05:52:13;;;;;;;4.97;4.47;;;17.20;1.00;;;;;;5051862;28;20032;-68
2023/05/21 05:54:39;;;;;;;4.70;4.28;;;17.30;1.00;;;;;;5051509;28;20031;-68
2023/05/21 05:57:04;;;;;;;5.35;4.65;;;17.30;1.00;;;;;;5047704;28;20491;-67
2023/05/21 05:59:32;;;;;;;5.43;4.50;;;17.30;1.00;;;;;;5047877;28;20024;-66
2023/05/21 06:01:59;;;;;;;4.55;4.15;;;17.30;1.00;;;;;;5040136;28;20032;-66
2023/05/21 06:04:24;;;;;;;5.72;4.22;;;17.30;1.00;;;;;;5051812;28;20029;-67
2023/05/21 06:06:51;;;;;;;4.57;4.18;;;17.30;1.00;;;;;;5049728;28;20040;-66
2023/05/21 06:09:17;;;;;;;5.90;4.03;;;17.30;1.00;;;;;;5044486;28;20025;-66
2023/05/21 06:11:42;;;;;;;3.78;3.47;;;17.20;1.00;;;;;;5049524;28;20032;-66
2023/05/21 06:14:08;;;;;;;5.10;3.60;;;17.20;1.00;;;;;;5050967;28;20120;-66
2023/05/21 06:16:34;;;;;;;4.07;3.65;;;17.30;1.00;;;;;;5050183;28;20044;-67
2023/05/21 06:18:59;;;;;;;3.58;3.25;;;17.30;1.00;;;;;;5051090;28;20044;-67
2023/05/21 06:21:25;;;;;;;3.72;3.03;;;17.20;1.00;;;;;;5051257;28;20427;-67
2023/05/21 06:23:51;;;;;;;3.15;2.85;;;17.30;1.00;;;;;;5050080;28;20116;-67
2023/05/21 06:26:18;;;;;;;2.75;2.55;;;17.20;1.00;;;;;;5050548;28;20156;-66
2023/05/21 06:28:43;;;;;;;2.53;2.30;;;17.20;1.00;;;;;;5051644;28;20389;-67
2023/05/21 06:31:10;;;;;;;3.50;2.28;;;17.20;1.00;;;;;;5050124;28;20031;-65
2023/05/21 06:33:36;;;;;;;3.50;2.13;;;17.20;1.00;;;;;;5050941;28;20028;-67
2023/05/21 06:36:02;;;;;;;3.17;1.92;;;17.20;1.00;;;;;;5052184;28;20033;-66
2023/05/21 06:38:27;;;;;;;2.60;2.15;;;17.20;1.00;;;;;;5048950;28;20157;-66
2023/05/21 06:40:53;;;;;;;1.92;1.48;;;17.30;1.00;;;;;;5052562;28;20459;-66
2023/05/21 06:43:19;;;;;;;2.38;1.55;;;17.30;1.00;;;;;;5054271;28;20017;-66
2023/05/21 06:45:45;;;;;;;1.90;1.70;;;17.30;1.00;;;;;;5054511;28;20033;-65
2023/05/21 06:48:11;;;;;;;2.90;1.95;;;17.30;1.00;;;;;;5053366;28;20052;-66
2023/05/21 06:50:36;;;;;;;1.60;1.50;;;17.30;1.00;;;;;;5053463;28;20025;-67
2023/05/21 06:53:02;;;;;;;3.10;1.70;;;17.30;1.00;;;;;;5050131;28;20052;-66
2023/05/21 06:55:28;;;;;;;1.30;1.20;;;17.40;1.00;;;;;;5055832;28;20075;-67
2023/05/21 06:57:55;;;;;;;2.08;1.88;;;17.40;1.00;;;;;;5055259;28;20028;-66
2023/05/21 07:00:20;;;;;;;2.15;1.25;;;17.40;1.00;;;;;;5054228;28;20494;-67
2023/05/21 07:02:46;;;;;;;2.10;1.90;;;17.40;1.00;;;;;;5052212;28;20049;-67
2023/05/21 07:05:12;;;;;;;2.53;1.48;;;17.40;1.00;;;;;;5055244;28;20028;-69
2023/05/21 07:07:37;;;;;;;1.40;1.30;;;17.40;1.00;;;;;;5053668;28;20374;-67
2023/05/21 07:10:03;;;;;;;1.30;1.02;;;17.50;1.00;;;;;;5055192;28;20033;-67
2023/05/21 07:12:29;;;;;;;1.33;1.20;;;17.50;1.00;;;;;;5053219;28;20017;-67
2023/05/21 07:14:54;;;;;;;1.48;1.38;;;17.50;1.00;;;;;;5053263;28;20103;-66
2023/05/21 07:17:20;;;;;;;1.30;1.20;;;17.50;1.00;;;;;;5053123;28;20036;-66
2023/05/21 07:19:46;;;;;;;2.75;1.75;;;17.50;1.00;;;;;;5054707;28;20083;-66
2023/05/21 07:22:11;;;;;;;1.23;1.10;;;17.50;1.00;;;;;;5052805;28;20090;-66
2023/05/21 07:24:37;;;;;;;1.05;1.05;;;17.40;1.00;;;;;;5051247;28;20056;-66
2023/05/21 07:27:03;;;;;;;1.77;1.35;;;17.50;1.00;;;;;;5053989;28;20125;-66
2023/05/21 07:29:29;;;;;;;1.88;1.50;;;17.50;1.00;;;;;;5054615;28;20100;-66
2023/05/21 07:31:54;;;;;;;1.80;1.30;;;17.50;1.00;;;;;;5053476;28;20123;-67
2023/05/21 07:34:20;;;;;;;1.85;1.00;;;17.60;1.00;;;;;;5054862;28;20067;-67
2023/05/21 07:36:46;;;;;;;1.40;1.20;;;17.60;1.00;;;;;;5053372;28;20478;-66
2023/05/21 07:39:12;;;;;;;2.50;1.13;;;17.60;1.00;;;;;;5053443;28;20099;-67
2023/05/21 07:41:37;;;;;;;1.77;1.30;;;17.60;1.00;;;;;;5052323;28;20028;-66
2023/05/21 07:44:03;;;;;;;1.63;1.20;;;17.60;1.00;;;;;;5054405;28;20112;-67
2023/05/21 07:46:29;;;;;;;1.58;1.48;;;17.70;1.00;;;;;;5053162;28;20068;-67
2023/05/21 07:48:55;;;;;;;2.67;1.38;;;17.80;1.00;;;;;;5053383;28;20474;-67
2023/05/21 07:51:20;;;;;;;1.42;1.23;;;17.80;1.00;;;;;;5052385;28;20025;-67
2023/05/21 07:53:46;;;;;;;2.08;1.30;;;17.90;1.00;;;;;;5054212;28;20048;-66
2023/05/21 07:56:12;;;;;;;1.40;1.30;;;17.90;1.00;;;;;;5049785;28;20388;-67
2023/05/21 07:58:39;;;;;;;2.00;1.38;;;18.00;1.00;;;;;;5054162;28;20029;-67
2023/05/21 08:01:05;;;;;;;2.33;1.30;;;18.00;1.00;;;;;;5051513;28;20041;-66
2023/05/21 08:03:30;;;;;;;3.10;1.48;;;18.10;1.00;;;;;;5049351;28;20028;-66
2023/05/21 08:05:56;;;;;;;1.25;1.15;;;18.10;1.00;;;;;;5052005;28;20394;-66
2023/05/21 08:08:22;;;;;;;1.30;1.10;;;18.10;1.00;;;;;;5053172;28;20024;-67
2023/05/21 08:10:48;;;;;;;3.47;1.88;;;18.10;1.00;;;;;;5052410;28;20426;-67
2023/05/21 08:13:15;;;;;;;2.47;1.33;;;18.20;1.00;;;;;;5051722;28;20025;-67
2023/05/21 08:15:41;;;;;;;2.25;1.42;;;18.30;1.00;;;;;;5050684;28;20176;-67
2023/05/21 08:18:07;;;;;;;1.40;1.30;;;18.40;1.00;;;;;;5052883;28;20534;-67
2023/05/21 08:20:33;;;;;;;1.90;1.50;;;18.40;1.00;;;;;;5050863;28;20036;-68
2023/05/21 08:22:59;;;;;;;1.88;1.02;;;18.40;1.00;;;;;;5052722;28;20108;-67
2023/05/21 08:25:28;;;;;;;2.10;1.48;;;18.50;1.00;;;;;;5053543;28;20039;-66
2023/05/21 08:27:54;;;;;;;1.75;1.40;;;18.50;1.00;;;;;;5053052;28;20104;-66
2023/05/21 08:30:20;;;;;;;1.35;1.25;;;18.70;1.00;;;;;;5053523;28;20033;-66
2023/05/21 08:32:47;;;;;;;2.22;2.03;;;18.70;1.00;;;;;;5053325;28;20437;-68
2023/05/21 08:35:12;;;;;;;3.85;1.80;;;18.80;1.00;;;;;;5053557;28;20145;-66
2023/05/21 08:37:38;;;;;;;1.50;1.40;;;18.80;1.00;;;;;;5048834;28;20440;-65
2023/05/21 08:40:05;;;;;;;1.83;1.73;;;18.70;1.00;;;;;;5054080;28;20220;-66
2023/05/21 08:42:47;;;;;;;1.98;1.77;;;18.70;1.00;;;;;;5053043;28;20094;-66
2023/05/21 08:45:14;;;;;;;3.65;2.30;;;18.60;1.00;;;;;;5049355;28;20103;-67
2023/05/21 08:47:43;;;;;;;3.88;3.38;;;18.70;1.00;;;;;;5053215;28;20025;-67
2023/05/21 08:50:11;;;;;;;3.33;2.78;;;18.60;1.00;;;;;;5044912;28;20526;-66
2023/05/21 08:52:37;;;;;;;3.33;2.42;;;18.60;1.00;;;;;;5053391;28;20033;-66
2023/05/21 08:55:04;;;;;;;7.28;3.28;;;18.60;1.00;;;;;;5059066;28;20443;-66
2023/05/21 08:57:30;;;;;;;2.78;2.55;;;18.60;1.00;;;;;;5053232;28;20041;-66
2023/05/21 08:59:56;;;;;;;4.65;3.30;;;18.60;1.00;;;;;;5050501;28;20037;-67
2023/05/21 09:02:23;;;;;;;4.30;3.90;;;18.60;1.00;;;;;;5052756;28;20383;-67
2023/05/21 09:04:55;;;;;;;3.72;3.42;;;18.60;1.00;;;;;;5052883;28;20040;-67
2023/05/21 09:07:29;;;;;;;3.03;2.83;;;18.70;1.00;;;;;;5051179;28;20037;-67
2023/05/21 09:09:57;;;;;;;3.45;3.17;;;18.70;1.00;;;;;;5052090;28;20399;-66
2023/05/21 09:12:24;;;;;;;4.97;3.30;;;18.70;1.00;;;;;;5044514;28;20036;-66
2023/05/21 09:14:50;;;;;;;4.07;3.63;;;18.70;1.00;;;;;;5052658;28;20032;-67
2023/05/21 09:17:16;;;;;;;3.50;3.20;;;18.70;1.00;;;;;;5045095;28;20013;-67
2023/05/21 09:20:12;;;;;;;4.07;2.97;;;18.60;1.00;;;;;;5052667;28;20032;-66
2023/05/21 09:22:41;;;;;;;5.25;4.03;;;18.70;1.00;;;;;;5046788;28;20033;-66
2023/05/21 09:25:08;;;;;;;3.88;3.47;;;18.70;1.00;;;;;;5052369;28;20075;-67
2023/05/21 09:27:34;;;;;;;4.95;3.50;;;18.70;1.00;;;;;;5052525;28;20513;-67
2023/05/21 09:30:02;;;;;;;4.57;3.80;;;18.80;1.00;;;;;;5051360;28;20079;-67
2023/05/21 09:32:28;;;;;;;4.55;4.10;;;18.90;1.00;;;;;;5051282;28;20383;-67
2023/05/21 09:34:53;;;;;;;5.32;3.65;;;18.90;1.00;;;;;;5053499;28;20025;-67
2023/05/21 09:37:21;;;;;;;6.53;3.83;;;18.90;1.00;;;;;;5050517;28;20080;-67
2023/05/21 09:39:47;;;;;;;5.65;4.10;;;18.90;1.00;;;;;;5052234;28;20033;-68
2023/05/21 09:42:13;;;;;;;5.10;4.45;;;18.90;1.00;;;;;;5053017;28;20086;-68
2023/05/21 09:44:43;;;;;;;4.03;3.65;;;19.00;1.00;;;;;;5039731;28;20441;-67
2023/05/21 09:47:08;;;;;;;5.38;4.47;;;19.10;1.00;;;;;;5048416;28;20029;-67
2023/05/21 09:49:36;;;;;;;5.47;4.43;;;19.20;1.00;;;;;;5044236;28;20032;-67
2023/05/21 09:52:02;;;;;;;4.85;4.18;;;19.30;1.00;;;;;;5049823;28;20024;-67
2023/05/21 09:54:32;;;;;;;6.95;5.05;;;19.30;1.00;;;;;;5050218;28;20079;-67
2023/05/21 09:57:03;;;;;;;4.05;3.42;;;19.30;1.00;;;;;;5046201;28;20040;-68
2023/05/21 09:59:38;;;;;;;4.50;4.10;;;19.40;1.00;;;;;;5059972;28;20099;-67
2023/05/21 10:02:15;;;;;;;4.60;4.20;;;19.30;1.00;;;;;;5051151;28;20025;-67
2023/05/21 10:04:43;;;;;;;5.18;3.85;;;19.40;1.00;;;;;;5049989;28;20079;-67
2023/05/21 10:07:09;;;;;;;5.05;4.65;;;19.40;1.00;;;;;;5049877;28;20055;-68
2023/05/21 10:09:34;;;;;;;4.63;4.20;;;19.50;1.00;;;;;;5049921;28;20052;-67
2023/05/21 10:12:00;;;;;;;5.15;4.65;;;19.60;1.00;;;;;;5051530;28;20535;-68
2023/05/21 10:14:28;;;;;;;5.97;4.70;;;19.70;1.00;;;;;;5050130;28;20129;-67
2023/05/21 10:16:55;;;;;;;7.35;4.55;;;19.70;1.00;;;;;;5051918;28;20025;-67
2023/05/21 10:19:22;;;;;;;5.60;5.10;;;19.80;1.00;;;;;;5049565;28;20093;-67
2023/05/21 10:21:50;;;;;;;6.43;5.00;;;19.90;1.00;;;;;;5046601;28;20465;-67
2023/05/21 10:24:16;;;;;;;6.13;5.63;;;20.00;1.00;;;;;;5049502;28;20378;-66
2023/05/21 10:26:43;;;;;;;5.82;5.32;;;20.10;1.00;;;;;;5049919;28;20063;-67
2023/05/21 10:29:09;;;;;;;5.18;4.53;;;20.20;1.00;;;;;;5049569;28;20427;-66
2023/05/21 10:31:37;;;;;;;5.80;5.30;;;20.30;1.00;;;;;;5049133;28;20452;-66
2023/05/21 10:34:05;;;;;;;6.10;5.50;;;20.40;1.00;;;;;;5049550;28;20070;-66
2023/05/21 10:36:31;;;;;;;6.43;5.32;;;20.50;1.00;;;;;;5048406;28;20078;-65
2023/05/21 10:38:58;;;;;;;7.38;6.07;;;20.50;1.00;;;;;;5047947;28;20356;-65
2023/05/21 10:41:27;;;;;;;9.52;5.60;;;20.60;1.00;;;;;;5049887;28;20075;-65
2023/05/21 10:44:07;;;;;;;10.00;6.78;;;20.80;1.00;;;;;;5049226;28;20036;-66
2023/05/21 10:47:02;;;;;;;7.45;6.82;;;20.90;1.00;;;;;;5046562;28;20033;-65
2023/05/21 10:49:42;;;;;;;6.97;6.18;;;21.10;1.00;;;;;;5047093;28;20033;-66
2023/05/21 10:52:27;;;;;;;8.00;5.90;;;21.20;1.00;;;;;;5049483;28;20040;-67
2023/05/21 10:55:37;;;;;;;6.82;6.13;;;21.30;1.00;;;;;;5049875;28;20021;-66
2023/05/21 10:58:37;;;;;;;7.43;6.35;;;21.40;1.00;;;;;;5043489;28;20428;-66
2023/05/21 11:01:03;;;;;;;7.82;6.95;;;21.50;1.00;;;;;;5047968;28;20041;-66
2023/05/21 11:03:30;;;;;;;7.00;6.40;;;21.50;1.00;;;;;;5047888;28;20039;-66
2023/05/21 11:05:56;;;;;;;6.70;6.07;;;21.50;1.00;;;;;;5049836;28;20032;-67
2023/05/21 11:08:24;;;;;;;7.05;5.55;;;21.60;1.00;;;;;;5049791;28;20033;-65
2023/05/21 11:10:56;;;;;;;6.38;5.78;;;21.50;1.00;;;;;;5049397;28;20047;-66
2023/05/21 11:13:22;;;;;;;7.55;6.70;;;21.50;1.00;;;;;;5051359;28;20029;-66
2023/05/21 11:16:12;;;;;;;7.07;6.47;;;21.50;1.00;;;;;;5049882;28;20538;-65
2023/05/21 11:18:37;;;;;;;6.70;6.10;;;21.50;1.00;;;;;;5046474;28;20463;-66
2023/05/21 11:21:03;;;;;;;6.47;5.90;;;21.50;1.00;;;;;;5047765;28;20047;-65
2023/05/21 11:23:49;;;;;;;9.02;6.55;;;21.60;1.00;;;;;;5050039;28;20074;-66
2023/05/21 11:26:20;;;;;;;7.53;6.40;;;21.60;1.00;;;;;;5046675;28;20037;-66
2023/05/21 11:28:49;;;;;;;7.07;6.25;;;21.90;1.00;;;;;;5052622;28;20036;-65
2023/05/21 11:31:23;;;;;;;6.85;6.15;;;22.40;1.00;;;;;;5053433;28;20036;-66
2023/05/21 11:34:10;;;;;;;6.72;5.75;;;22.50;1.00;;;;;;5054567;28;20047;-66
2023/05/21 11:36:37;;;;;;;6.70;5.70;;;22.70;1.00;;;;;;5044443;28;20116;-65
2023/05/21 11:39:16;;;;;;;6.78;6.18;;;23.00;1.00;;;;;;5049763;28;20033;-65
2023/05/21 11:42:00;;;;;;;6.47;5.93;;;23.10;1.00;;;;;;5056874;28;20049;-66
2023/05/21 11:44:42;;;;;;;6.70;6.05;;;23.20;1.00;;;;;;5086038;28;20036;-66
2023/05/21 11:47:09;;;;;;;6.15;5.47;;;23.30;1.00;;;;;;5053154;28;20033;-65
2023/05/21 11:49:36;;;;;;;6.03;5.53;;;23.40;1.00;;;;;;5049586;28;20110;-65
2023/05/21 11:52:06;;;;;;;6.05;5.60;;;23.60;1.00;;;;;;5051997;28;20117;-65
2023/05/21 11:54:37;;;;;;;7.13;6.53;;;23.70;1.00;;;;;;5052919;28;20349;-65
2023/05/21 11:57:06;;;;;;;6.85;6.15;;;24.00;1.00;;;;;;5052985;28;20021;-65
2023/05/21 11:59:33;;;;;;;6.60;5.95;;;24.20;1.00;;;;;;5045752;28;20025;-65
2023/05/21 12:01:59;;;;;;;6.78;6.10;;;24.50;1.00;;;;;;5052205;28;20485;-65
2023/05/21 12:04:31;;;;;;;6.03;5.43;;;24.90;1.00;;;;;;5052351;28;20032;-65
2023/05/21 12:06:57;;;;;;;6.45;5.80;;;25.30;1.00;;;;;;5054019;28;20116;-65
2023/05/21 12:09:24;;;;;;;6.70;5.97;;;25.60;1.00;;;;;;5052348;28;20116;-65
2023/05/21 12:11:50;;;;;;;6.63;6.03;;;26.00;1.00;;;;;;5052265;28;20021;-64
2023/05/21 12:14:16;;;;;;;6.15;5.65;;;26.80;1.00;;;;;;5051683;28;20032;-64
2023/05/21 12:16:42;;;;;;;6.55;5.97;;;27.70;1.00;;;;;;5052227;28;20360;-65
2023/05/21 12:19:08;;;;;;;6.95;6.35;;;29.10;1.00;;;;;;5051670;28;20036;-65
2023/05/21 12:21:35;;;;;;;6.22;5.47;;;30.30;1.00;;;;;;5051922;28;20041;-65
2023/05/21 12:24:01;;;;;;;6.47;5.88;;;32.30;99.90;;;;;;5052198;28;20018;-65
2023/05/21 12:26:28;;;;;;;6.97;6.38;;;33.60;99.90;;;;;;5052310;28;20037;-65
2023/05/21 12:28:54;;;;;;;6.50;6.00;;;34.70;99.90;;;;;;5051219;28;20031;-65
2023/05/21 12:31:26;;;;;;;6.30;5.80;;;35.00;99.90;;;;;;5050291;28;20056;-65
2023/05/21 12:33:52;;;;;;;6.35;5.85;;;33.70;99.90;;;;;;5053766;28;20033;-65
2023/05/21 12:36:30;;;;;;;6.68;5.45;;;30.50;99.90;;;;;;5053243;28;20028;-65
2023/05/21 12:38:57;;;;;;;7.18;6.53;;;29.40;99.90;;;;;;5048301;28;20124;-65
2023/05/21 12:41:22;;;;;;;7.20;6.50;;;29.70;99.90;;;;;;5049937;28;20037;-65
2023/05/21 12:43:50;;;;;;;7.00;6.40;;;29.30;99.90;;;;;;5050848;28;20075;-65
2023/05/21 12:46:17;;;;;;;7.88;7.18;;;28.60;99.90;;;;;;5053539;28;20037;-65
2023/05/21 12:48:54;;;;;;;7.80;7.20;;;27.90;99.90;;;;;;5052358;28;20379;-65
2023/05/21 12:51:20;;;;;;;8.38;7.68;;;27.20;99.90;;;;;;5049397;28;20040;-65
2023/05/21 12:53:46;;;;;;;7.75;6.68;;;27.10;99.90;;;;;;5054192;28;20406;-65
2023/05/21 12:56:13;;;;;;;7.97;7.32;;;27.10;99.90;;;;;;5052954;28;20102;-64
2023/05/21 12:58:40;;;;;;;8.38;7.55;;;27.20;99.90;;;;;;5050336;28;20032;-64